sensor_id;sensor_type;location;lat;lon;timestamp;temperature;humidity
23579;DHT22;11967;50.852;4.400;2022-07-10T00:00:32;21.50;99.90
23579;DHT22;11967;50.852;4.400;2022-07-10T00:02:58;21.50;99.90
23579;DHT22;11967;50.852;4.400;2022-07-10T00:05:24;21.50;99.90
23579;DHT22;11967;50.852;4.400;2022-07-10T00:07:50;21.50;99.90
23579;DHT22;11967;50.852;4.400;2022-07-10T00:10:17;21.50;99.90
23579;DHT22;11967;50.852;4.400;2022-07-10T00:12:44;21.60;99.90
23579;DHT22;11967;50.852;4.400;2022-07-10T00:15:12;21.60;99.90
23579;DHT22;11967;50.852;4.400;2022-07-10T00:17:38;21.60;99.90
23579;DHT22;11967;50.852;4.400;2022-07-10T00:20:05;21.60;99.90
23579;DHT22;11967;50.852;4.400;2022-07-10T00:22:33;21.40;99.90
23579;DHT22;11967;50.852;4.400;2022-07-10T00:25:02;21.40;99.90
23579;DHT22;11967;50.852;4.400;2022-07-10T00:27:28;21.40;99.90
23579;DHT22;11967;50.852;4.400;2022-07-10T00:29:53;21.50;99.90
23579;DHT22;11967;50.852;4.400;2022-07-10T00:32:19;21.40;99.90
23579;DHT22;11967;50.852;4.400;2022-07-10T00:34:45;21.50;99.90
23579;DHT22;11967;50.852;4.400;2022-07-10T00:37:10;21.40;99.90
23579;DHT22;11967;50.852;4.400;2022-07-10T00:39:36;21.50;99.90
23579;DHT22;11967;50.852;4.400;2022-07-10T00:42:10;21.40;99.90
23579;DHT22;11967;50.852;4.400;2022-07-10T00:44:37;21.40;99.90
23579;DHT22;11967;50.852;4.400;2022-07-10T00:47:05;21.40;99.90
23579;DHT22;11967;50.852;4.400;2022-07-10T00:49:32;21.40;99.90
23579;DHT22;11967;50.852;4.400;2022-07-10T00:52:00;21.40;99.90
23579;DHT22;11967;50.852;4.400;2022-07-10T00:54:28;21.30;99.90
23579;DHT22;11967;50.852;4.400;2022-07-10T00:56:54;21.30;99.90
23579;DHT22;11967;50.852;4.400;2022-07-10T00:59:21;21.30;99.90
23579;DHT22;11967;50.852;4.400;2022-07-10T01:01:47;21.20;99.90
23579;DHT22;11967;50.852;4.400;2022-07-10T01:04:13;21.20;99.90
23579;DHT22;11967;50.852;4.400;2022-07-10T01:06:39;21.20;99.90
23579;DHT22;11967;50.852;4.400;2022-07-10T01:09:05;21.20;99.90
23579;DHT22;11967;50.852;4.400;2022-07-10T01:11:33;21.10;99.90
23579;DHT22;11967;50.852;4.400;2022-07-10T01:14:00;21.20;99.90
23579;DHT22;11967;50.852;4.400;2022-07-10T01:16:26;21.20;99.90
23579;DHT22;11967;50.852;4.400;2022-07-10T01:18:52;21.20;99.90
23579;DHT22;11967;50.852;4.400;2022-07-10T01:21:31;21.10;99.90
23579;DHT22;11967;50.852;4.400;2022-07-10T01:23:58;21.10;99.90
23579;DHT22;11967;50.852;4.400;2022-07-10T01:26:25;21.00;99.90
23579;DHT22;11967;50.852;4.400;2022-07-10T01:28:52;20.90;99.90
23579;DHT22;11967;50.852;4.400;2022-07-10T01:31:25;21.00;99.90
23579;DHT22;11967;50.852;4.400;2022-07-10T01:33:55;21.00;99.90
23579;DHT22;11967;50.852;4.400;2022-07-10T01:36:23;20.90;99.90
23579;DHT22;11967;50.852;4.400;2022-07-10T01:38:54;21.00;99.90
23579;DHT22;11967;50.852;4.400;2022-07-10T01:41:20;20.90;99.90
23579;DHT22;11967;50.852;4.400;2022-07-10T01:43:46;20.90;99.90
23579;DHT22;11967;50.852;4.400;2022-07-10T01:46:14;20.80;99.90
23579;DHT22;11967;50.852;4.400;2022-07-10T01:48:40;20.90;99.90
23579;DHT22;11967;50.852;4.400;2022-07-10T01:51:08;20.90;99.90
23579;DHT22;11967;50.852;4.400;2022-07-10T01:53:34;20.90;99.90
23579;DHT22;11967;50.852;4.400;2022-07-10T01:56:05;20.90;99.90
23579;DHT22;11967;50.852;4.400;2022-07-10T01:58:32;20.90;99.90
23579;DHT22;11967;50.852;4.400;2022-07-10T02:00:58;20.90;99.90
23579;DHT22;11967;50.852;4.400;2022-07-10T02:03:24;20.90;99.90
23579;DHT22;11967;50.852;4.400;2022-07-10T02:06:08;20.90;99.90
23579;DHT22;11967;50.852;4.400;2022-07-10T02:08:34;20.90;99.90
23579;DHT22;11967;50.852;4.400;2022-07-10T02:10:59;20.80;99.90
23579;DHT22;11967;50.852;4.400;2022-07-10T02:13:25;20.70;99.90
23579;DHT22;11967;50.852;4.400;2022-07-10T02:15:53;20.70;99.90
23579;DHT22;11967;50.852;4.400;2022-07-10T02:18:19;20.60;99.90
23579;DHT22;11967;50.852;4.400;2022-07-10T02:20:45;20.60;99.90
23579;DHT22;11967;50.852;4.400;2022-07-10T02:23:10;20.60;99.90
23579;DHT22;11967;50.852;4.400;2022-07-10T02:25:36;20.60;99.90
23579;DHT22;11967;50.852;4.400;2022-07-10T02:28:02;20.60;99.90
23579;DHT22;11967;50.852;4.400;2022-07-10T02:30:27;20.70;99.90
23579;DHT22;11967;50.852;4.400;2022-07-10T02:32:55;20.70;99.90
23579;DHT22;11967;50.852;4.400;2022-07-10T02:35:22;20.70;99.90
23579;DHT22;11967;50.852;4.400;2022-07-10T02:37:48;20.70;99.90
23579;DHT22;11967;50.852;4.400;2022-07-10T02:40:14;20.60;99.90
23579;DHT22;11967;50.852;4.400;2022-07-10T02:42:40;20.60;99.90
23579;DHT22;11967;50.852;4.400;2022-07-10T02:45:06;20.60;99.90
23579;DHT22;11967;50.852;4.400;2022-07-10T02:47:32;20.50;99.90
23579;DHT22;11967;50.852;4.400;2022-07-10T02:49:58;20.60;99.90
23579;DHT22;11967;50.852;4.400;2022-07-10T02:52:23;20.60;99.90
23579;DHT22;11967;50.852;4.400;2022-07-10T02:54:49;20.50;99.90
23579;DHT22;11967;50.852;4.400;2022-07-10T02:57:16;20.50;99.90
23579;DHT22;11967;50.852;4.400;2022-07-10T02:59:42;20.50;99.90
23579;DHT22;11967;50.852;4.400;2022-07-10T03:02:10;20.40;99.90
23579;DHT22;11967;50.852;4.400;2022-07-10T03:04:35;20.50;99.90
23579;DHT22;11967;50.852;4.400;2022-07-10T03:07:01;20.50;99.90
23579;DHT22;11967;50.852;4.400;2022-07-10T03:09:27;20.50;99.90
23579;DHT22;11967;50.852;4.400;2022-07-10T03:11:52;20.50;99.90
23579;DHT22;11967;50.852;4.400;2022-07-10T03:14:20;20.50;99.90
23579;DHT22;11967;50.852;4.400;2022-07-10T03:16:46;20.60;99.90
23579;DHT22;11967;50.852;4.400;2022-07-10T03:19:11;20.60;99.90
23579;DHT22;11967;50.852;4.400;2022-07-10T03:21:37;20.60;99.90
23579;DHT22;11967;50.852;4.400;2022-07-10T03:24:03;20.50;99.90
23579;DHT22;11967;50.852;4.400;2022-07-10T03:26:29;20.50;99.90
23579;DHT22;11967;50.852;4.400;2022-07-10T03:28:55;20.50;99.90
23579;DHT22;11967;50.852;4.400;2022-07-10T03:31:21;20.50;99.90
23579;DHT22;11967;50.852;4.400;2022-07-10T03:33:46;20.60;99.90
23579;DHT22;11967;50.852;4.400;2022-07-10T03:36:12;20.60;99.90
23579;DHT22;11967;50.852;4.400;2022-07-10T03:38:40;20.60;99.90
23579;DHT22;11967;50.852;4.400;2022-07-10T03:41:05;20.60;99.90
23579;DHT22;11967;50.852;4.400;2022-07-10T03:43:31;20.60;99.90
23579;DHT22;11967;50.852;4.400;2022-07-10T03:45:57;20.60;99.90
23579;DHT22;11967;50.852;4.400;2022-07-10T03:48:23;20.50;99.90
23579;DHT22;11967;50.852;4.400;2022-07-10T03:50:54;20.40;99.90
23579;DHT22;11967;50.852;4.400;2022-07-10T03:53:20;20.40;99.90
23579;DHT22;11967;50.852;4.400;2022-07-10T03:55:46;20.30;99.90
23579;DHT22;11967;50.852;4.400;2022-07-10T03:58:11;20.40;99.90
23579;DHT22;11967;50.852;4.400;2022-07-10T04:00:37;20.30;99.90
23579;DHT22;11967;50.852;4.400;2022-07-10T04:03:07;20.30;99.90
23579;DHT22;11967;50.852;4.400;2022-07-10T04:05:34;20.30;99.90
23579;DHT22;11967;50.852;4.400;2022-07-10T04:08:01;20.30;99.90
23579;DHT22;11967;50.852;4.400;2022-07-10T04:10:28;20.30;99.90
23579;DHT22;11967;50.852;4.400;2022-07-10T04:12:55;20.30;99.90
23579;DHT22;11967;50.852;4.400;2022-07-10T04:15:21;20.30;99.90
23579;DHT22;11967;50.852;4.400;2022-07-10T04:17:48;20.40;99.90
23579;DHT22;11967;50.852;4.400;2022-07-10T04:20:15;20.40;99.90
23579;DHT22;11967;50.852;4.400;2022-07-10T04:22:41;20.40;99.90
23579;DHT22;11967;50.852;4.400;2022-07-10T04:25:07;20.40;99.90
23579;DHT22;11967;50.852;4.400;2022-07-10T04:27:33;20.50;99.90
23579;DHT22;11967;50.852;4.400;2022-07-10T04:29:59;20.30;99.90
23579;DHT22;11967;50.852;4.400;2022-07-10T04:32:25;20.40;99.90
23579;DHT22;11967;50.852;4.400;2022-07-10T04:34:50;20.40;99.90
23579;DHT22;11967;50.852;4.400;2022-07-10T04:37:16;20.40;99.90
23579;DHT22;11967;50.852;4.400;2022-07-10T04:39:42;20.40;99.90
23579;DHT22;11967;50.852;4.400;2022-07-10T04:42:08;20.30;99.90
23579;DHT22;11967;50.852;4.400;2022-07-10T04:44:35;20.40;99.90
23579;DHT22;11967;50.852;4.400;2022-07-10T04:47:04;20.30;99.90
23579;DHT22;11967;50.852;4.400;2022-07-10T04:49:31;20.40;99.90
23579;DHT22;11967;50.852;4.400;2022-07-10T04:51:57;20.40;99.90
23579;DHT22;11967;50.852;4.400;2022-07-10T04:54:23;20.40;99.90
23579;DHT22;11967;50.852;4.400;2022-07-10T04:56:49;20.50;99.90
23579;DHT22;11967;50.852;4.400;2022-07-10T04:59:14;20.50;99.90
23579;DHT22;11967;50.852;4.400;2022-07-10T05:01:40;20.60;99.90
23579;DHT22;11967;50.852;4.400;2022-07-10T05:04:06;20.60;99.90
23579;DHT22;11967;50.852;4.400;2022-07-10T05:06:31;20.50;99.90
23579;DHT22;11967;50.852;4.400;2022-07-10T05:09:01;20.40;99.90
23579;DHT22;11967;50.852;4.400;2022-07-10T05:11:27;20.40;99.90
23579;DHT22;11967;50.852;4.400;2022-07-10T05:13:53;20.40;99.90
23579;DHT22;11967;50.852;4.400;2022-07-10T05:16:19;20.30;99.90
23579;DHT22;11967;50.852;4.400;2022-07-10T05:18:45;20.30;99.90
23579;DHT22;11967;50.852;4.400;2022-07-10T05:21:11;20.40;99.90
23579;DHT22;11967;50.852;4.400;2022-07-10T05:23:38;20.40;99.90
23579;DHT22;11967;50.852;4.400;2022-07-10T05:26:04;20.30;99.90
23579;DHT22;11967;50.852;4.400;2022-07-10T05:28:30;20.40;99.90
23579;DHT22;11967;50.852;4.400;2022-07-10T05:30:55;20.40;99.90
23579;DHT22;11967;50.852;4.400;2022-07-10T05:33:21;20.40;99.90
23579;DHT22;11967;50.852;4.400;2022-07-10T05:35:47;20.50;99.90
23579;DHT22;11967;50.852;4.400;2022-07-10T05:38:13;20.50;99.90
23579;DHT22;11967;50.852;4.400;2022-07-10T05:40:38;20.50;99.90
23579;DHT22;11967;50.852;4.400;2022-07-10T05:43:05;20.40;99.90
23579;DHT22;11967;50.852;4.400;2022-07-10T05:45:31;20.40;99.90
23579;DHT22;11967;50.852;4.400;2022-07-10T05:47:57;20.30;99.90
23579;DHT22;11967;50.852;4.400;2022-07-10T05:50:22;20.40;99.90
23579;DHT22;11967;50.852;4.400;2022-07-10T05:52:48;20.50;99.90
23579;DHT22;11967;50.852;4.400;2022-07-10T05:55:13;20.50;99.90
23579;DHT22;11967;50.852;4.400;2022-07-10T05:57:40;20.50;99.90
23579;DHT22;11967;50.852;4.400;2022-07-10T06:00:06;20.40;99.90
23579;DHT22;11967;50.852;4.400;2022-07-10T06:02:33;20.50;99.90
23579;DHT22;11967;50.852;4.400;2022-07-10T06:04:59;20.50;99.90
23579;DHT22;11967;50.852;4.400;2022-07-10T06:07:26;20.50;99.90
23579;DHT22;11967;50.852;4.400;2022-07-10T06:09:52;20.50;99.90
23579;DHT22;11967;50.852;4.400;2022-07-10T06:12:24;20.60;99.90
23579;DHT22;11967;50.852;4.400;2022-07-10T06:14:51;20.70;99.90
23579;DHT22;11967;50.852;4.400;2022-07-10T06:17:17;20.80;99.90
23579;DHT22;11967;50.852;4.400;2022-07-10T06:19:44;20.70;99.90
23579;DHT22;11967;50.852;4.400;2022-07-10T06:22:09;20.70;99.90
23579;DHT22;11967;50.852;4.400;2022-07-10T06:24:57;20.70;99.90
23579;DHT22;11967;50.852;4.400;2022-07-10T06:27:23;20.70;99.90
23579;DHT22;11967;50.852;4.400;2022-07-10T06:29:48;20.80;99.90
23579;DHT22;11967;50.852;4.400;2022-07-10T06:32:14;20.80;99.90
23579;DHT22;11967;50.852;4.400;2022-07-10T06:34:48;20.80;99.90
23579;DHT22;11967;50.852;4.400;2022-07-10T06:37:23;20.80;99.90
23579;DHT22;11967;50.852;4.400;2022-07-10T06:39:49;20.90;99.90
23579;DHT22;11967;50.852;4.400;2022-07-10T06:42:15;20.90;99.90
23579;DHT22;11967;50.852;4.400;2022-07-10T06:44:42;21.00;99.90
23579;DHT22;11967;50.852;4.400;2022-07-10T06:47:09;21.00;99.90
23579;DHT22;11967;50.852;4.400;2022-07-10T06:49:54;21.10;99.90
23579;DHT22;11967;50.852;4.400;2022-07-10T06:52:20;21.10;99.90
23579;DHT22;11967;50.852;4.400;2022-07-10T06:54:46;21.00;99.90
23579;DHT22;11967;50.852;4.400;2022-07-10T06:57:12;21.00;99.90
23579;DHT22;11967;50.852;4.400;2022-07-10T06:59:38;20.90;99.90
23579;DHT22;11967;50.852;4.400;2022-07-10T07:02:04;20.90;99.90
23579;DHT22;11967;50.852;4.400;2022-07-10T07:04:30;21.00;99.90
23579;DHT22;11967;50.852;4.400;2022-07-10T07:06:56;21.00;99.90
23579;DHT22;11967;50.852;4.400;2022-07-10T07:09:25;20.90;99.90
23579;DHT22;11967;50.852;4.400;2022-07-10T07:11:51;20.90;99.90
23579;DHT22;11967;50.852;4.400;2022-07-10T07:14:16;21.00;99.90
23579;DHT22;11967;50.852;4.400;2022-07-10T07:16:42;21.00;99.90
23579;DHT22;11967;50.852;4.400;2022-07-10T07:19:10;21.00;99.90
23579;DHT22;11967;50.852;4.400;2022-07-10T07:21:37;21.10;99.90
23579;DHT22;11967;50.852;4.400;2022-07-10T07:24:21;21.10;99.90
23579;DHT22;11967;50.852;4.400;2022-07-10T07:26:48;21.20;99.90
23579;DHT22;11967;50.852;4.400;2022-07-10T07:29:15;21.40;99.90
23579;DHT22;11967;50.852;4.400;2022-07-10T07:31:41;21.70;99.90
23579;DHT22;11967;50.852;4.400;2022-07-10T07:34:06;22.00;99.90
23579;DHT22;11967;50.852;4.400;2022-07-10T07:36:32;22.30;99.90
23579;DHT22;11967;50.852;4.400;2022-07-10T07:38:59;22.60;99.90
23579;DHT22;11967;50.852;4.400;2022-07-10T07:41:24;22.70;99.90
23579;DHT22;11967;50.852;4.400;2022-07-10T07:43:50;22.90;99.90
23579;DHT22;11967;50.852;4.400;2022-07-10T07:46:16;23.00;99.90
23579;DHT22;11967;50.852;4.400;2022-07-10T07:48:42;23.10;99.90
23579;DHT22;11967;50.852;4.400;2022-07-10T07:51:08;23.10;99.90
23579;DHT22;11967;50.852;4.400;2022-07-10T07:53:33;23.20;99.90
23579;DHT22;11967;50.852;4.400;2022-07-10T07:55:59;23.30;99.90
23579;DHT22;11967;50.852;4.400;2022-07-10T07:58:25;23.30;99.90
23579;DHT22;11967;50.852;4.400;2022-07-10T08:00:50;23.40;99.90
23579;DHT22;11967;50.852;4.400;2022-07-10T08:03:16;23.50;99.90
23579;DHT22;11967;50.852;4.400;2022-07-10T08:05:42;23.50;99.90
23579;DHT22;11967;50.852;4.400;2022-07-10T08:08:08;23.60;99.90
23579;DHT22;11967;50.852;4.400;2022-07-10T08:10:37;23.50;99.90
23579;DHT22;11967;50.852;4.400;2022-07-10T08:13:03;23.60;99.90
23579;DHT22;11967;50.852;4.400;2022-07-10T08:15:30;23.70;99.90
23579;DHT22;11967;50.852;4.400;2022-07-10T08:17:57;23.70;99.90
23579;DHT22;11967;50.852;4.400;2022-07-10T08:20:25;23.60;99.90
23579;DHT22;11967;50.852;4.400;2022-07-10T08:22:52;23.80;99.90
23579;DHT22;11967;50.852;4.400;2022-07-10T08:25:19;23.70;99.90
23579;DHT22;11967;50.852;4.400;2022-07-10T08:27:45;23.70;99.90
23579;DHT22;11967;50.852;4.400;2022-07-10T08:30:11;23.70;99.90
23579;DHT22;11967;50.852;4.400;2022-07-10T08:32:40;23.60;99.90
23579;DHT22;11967;50.852;4.400;2022-07-10T08:35:07;23.50;99.90
23579;DHT22;11967;50.852;4.400;2022-07-10T08:37:43;23.60;99.90
23579;DHT22;11967;50.852;4.400;2022-07-10T08:40:12;23.60;99.90
23579;DHT22;11967;50.852;4.400;2022-07-10T08:42:38;23.70;99.90
23579;DHT22;11967;50.852;4.400;2022-07-10T08:45:05;23.80;99.90
23579;DHT22;11967;50.852;4.400;2022-07-10T08:47:34;23.90;99.90
23579;DHT22;11967;50.852;4.400;2022-07-10T08:50:00;24.00;99.90
23579;DHT22;11967;50.852;4.400;2022-07-10T08:52:31;24.00;99.90
23579;DHT22;11967;50.852;4.400;2022-07-10T08:55:00;24.10;99.90
23579;DHT22;11967;50.852;4.400;2022-07-10T08:57:26;24.10;99.90
23579;DHT22;11967;50.852;4.400;2022-07-10T08:59:52;24.10;99.90
23579;DHT22;11967;50.852;4.400;2022-07-10T09:02:19;24.10;99.90
23579;DHT22;11967;50.852;4.400;2022-07-10T09:04:45;24.00;99.90
23579;DHT22;11967;50.852;4.400;2022-07-10T09:07:11;23.90;99.90
23579;DHT22;11967;50.852;4.400;2022-07-10T09:09:53;23.90;99.90
23579;DHT22;11967;50.852;4.400;2022-07-10T09:12:21;24.00;99.90
23579;DHT22;11967;50.852;4.400;2022-07-10T09:14:48;24.00;99.90
23579;DHT22;11967;50.852;4.400;2022-07-10T09:17:13;24.10;99.90
23579;DHT22;11967;50.852;4.400;2022-07-10T09:19:40;24.10;99.90
23579;DHT22;11967;50.852;4.400;2022-07-10T09:22:08;24.20;99.90
23579;DHT22;11967;50.852;4.400;2022-07-10T09:24:41;24.30;99.90
23579;DHT22;11967;50.852;4.400;2022-07-10T09:27:07;24.20;99.90
23579;DHT22;11967;50.852;4.400;2022-07-10T09:29:45;24.20;99.90
23579;DHT22;11967;50.852;4.400;2022-07-10T09:32:15;24.20;99.90
23579;DHT22;11967;50.852;4.400;2022-07-10T09:34:46;24.30;99.90
23579;DHT22;11967;50.852;4.400;2022-07-10T09:37:20;24.40;99.90
23579;DHT22;11967;50.852;4.400;2022-07-10T09:40:01;24.40;99.90
23579;DHT22;11967;50.852;4.400;2022-07-10T09:42:40;24.30;99.90
23579;DHT22;11967;50.852;4.400;2022-07-10T09:47:39;24.20;99.90
23579;DHT22;11967;50.852;4.400;2022-07-10T09:52:56;24.20;99.90
23579;DHT22;11967;50.852;4.400;2022-07-10T09:55:24;24.30;99.90
23579;DHT22;11967;50.852;4.400;2022-07-10T09:58:02;24.40;99.90
23579;DHT22;11967;50.852;4.400;2022-07-10T10:00:36;24.40;99.90
23579;DHT22;11967;50.852;4.400;2022-07-10T10:03:04;24.40;99.90
23579;DHT22;11967;50.852;4.400;2022-07-10T10:05:44;24.30;99.90
23579;DHT22;11967;50.852;4.400;2022-07-10T10:08:12;24.30;99.90
23579;DHT22;11967;50.852;4.400;2022-07-10T10:10:44;24.20;99.90
23579;DHT22;11967;50.852;4.400;2022-07-10T10:13:11;24.10;99.90
23579;DHT22;11967;50.852;4.400;2022-07-10T10:15:37;24.20;99.90
23579;DHT22;11967;50.852;4.400;2022-07-10T10:18:03;24.30;99.90
23579;DHT22;11967;50.852;4.400;2022-07-10T10:20:32;24.40;99.90
23579;DHT22;11967;50.852;4.400;2022-07-10T10:23:11;24.40;99.90
23579;DHT22;11967;50.852;4.400;2022-07-10T10:25:38;24.50;99.90
23579;DHT22;11967;50.852;4.400;2022-07-10T10:28:09;24.50;99.90
23579;DHT22;11967;50.852;4.400;2022-07-10T10:30:40;24.60;99.90
23579;DHT22;11967;50.852;4.400;2022-07-10T10:35:58;24.50;99.90
23579;DHT22;11967;50.852;4.400;2022-07-10T10:38:24;24.50;99.90
23579;DHT22;11967;50.852;4.400;2022-07-10T10:40:50;24.60;99.90
23579;DHT22;11967;50.852;4.400;2022-07-10T10:43:20;24.60;99.90
23579;DHT22;11967;50.852;4.400;2022-07-10T10:45:47;24.60;99.90
23579;DHT22;11967;50.852;4.400;2022-07-10T10:48:14;24.60;99.90
23579;DHT22;11967;50.852;4.400;2022-07-10T10:50:48;24.60;99.90
23579;DHT22;11967;50.852;4.400;2022-07-10T10:53:28;24.70;99.90
23579;DHT22;11967;50.852;4.400;2022-07-10T10:58:40;24.50;99.90
23579;DHT22;11967;50.852;4.400;2022-07-10T11:01:24;24.60;99.90
23579;DHT22;11967;50.852;4.400;2022-07-10T11:06:39;24.60;99.90
23579;DHT22;11967;50.852;4.400;2022-07-10T11:12:07;24.80;99.90
23579;DHT22;11967;50.852;4.400;2022-07-10T11:14:44;24.90;99.90
23579;DHT22;11967;50.852;4.400;2022-07-10T11:17:10;25.00;99.90
23579;DHT22;11967;50.852;4.400;2022-07-10T11:19:36;25.00;99.90
23579;DHT22;11967;50.852;4.400;2022-07-10T11:27:52;25.10;99.90
23579;DHT22;11967;50.852;4.400;2022-07-10T11:30:22;25.00;99.90
23579;DHT22;11967;50.852;4.400;2022-07-10T11:32:47;25.10;99.90
23579;DHT22;11967;50.852;4.400;2022-07-10T11:35:14;25.10;99.90
23579;DHT22;11967;50.852;4.400;2022-07-10T11:37:53;25.10;99.90
23579;DHT22;11967;50.852;4.400;2022-07-10T11:40:19;25.10;99.90
23579;DHT22;11967;50.852;4.400;2022-07-10T11:45:29;25.10;99.90
23579;DHT22;11967;50.852;4.400;2022-07-10T11:47:55;25.00;99.90
23579;DHT22;11967;50.852;4.400;2022-07-10T11:50:22;25.00;99.90
23579;DHT22;11967;50.852;4.400;2022-07-10T11:52:48;25.00;99.90
23579;DHT22;11967;50.852;4.400;2022-07-10T11:55:16;25.00;99.90
23579;DHT22;11967;50.852;4.400;2022-07-10T11:57:42;24.90;99.90
23579;DHT22;11967;50.852;4.400;2022-07-10T12:00:27;25.00;99.90
23579;DHT22;11967;50.852;4.400;2022-07-10T12:02:54;25.10;99.90
23579;DHT22;11967;50.852;4.400;2022-07-10T12:05:37;25.20;99.90
23579;DHT22;11967;50.852;4.400;2022-07-10T12:08:03;25.20;99.90
23579;DHT22;11967;50.852;4.400;2022-07-10T12:10:30;25.10;99.90
23579;DHT22;11967;50.852;4.400;2022-07-10T12:13:23;25.10;99.90
23579;DHT22;11967;50.852;4.400;2022-07-10T12:15:48;25.20;99.90
23579;DHT22;11967;50.852;4.400;2022-07-10T12:18:21;25.20;99.90
23579;DHT22;11967;50.852;4.400;2022-07-10T12:20:47;25.30;99.90
23579;DHT22;11967;50.852;4.400;2022-07-10T12:23:18;25.40;99.90
23579;DHT22;11967;50.852;4.400;2022-07-10T12:25:45;25.40;99.90
23579;DHT22;11967;50.852;4.400;2022-07-10T12:28:12;25.40;99.90
23579;DHT22;11967;50.852;4.400;2022-07-10T12:30:48;25.50;99.90
23579;DHT22;11967;50.852;4.400;2022-07-10T12:33:22;25.60;99.90
23579;DHT22;11967;50.852;4.400;2022-07-10T12:35:58;25.50;99.90
23579;DHT22;11967;50.852;4.400;2022-07-10T12:38:28;25.50;99.90
23579;DHT22;11967;50.852;4.400;2022-07-10T12:41:11;25.50;99.90
23579;DHT22;11967;50.852;4.400;2022-07-10T12:43:37;25.50;99.90
23579;DHT22;11967;50.852;4.400;2022-07-10T12:48:35;25.50;99.90
23579;DHT22;11967;50.852;4.400;2022-07-10T12:51:23;25.50;99.90
23579;DHT22;11967;50.852;4.400;2022-07-10T12:53:51;25.60;99.90
23579;DHT22;11967;50.852;4.400;2022-07-10T12:56:36;25.60;99.90
23579;DHT22;11967;50.852;4.400;2022-07-10T12:59:12;25.70;99.90
23579;DHT22;11967;50.852;4.400;2022-07-10T13:01:48;25.70;99.90
23579;DHT22;11967;50.852;4.400;2022-07-10T13:04:14;25.80;99.90
23579;DHT22;11967;50.852;4.400;2022-07-10T13:06:40;25.70;99.90
23579;DHT22;11967;50.852;4.400;2022-07-10T13:09:19;25.80;99.90
23579;DHT22;11967;50.852;4.400;2022-07-10T13:11:46;25.90;99.90
23579;DHT22;11967;50.852;4.400;2022-07-10T13:14:11;25.80;99.90
23579;DHT22;11967;50.852;4.400;2022-07-10T13:16:37;25.80;99.90
23579;DHT22;11967;50.852;4.400;2022-07-10T13:19:03;25.80;99.90
23579;DHT22;11967;50.852;4.400;2022-07-10T13:21:28;25.90;99.90
23579;DHT22;11967;50.852;4.400;2022-07-10T13:23:54;25.90;99.90
23579;DHT22;11967;50.852;4.400;2022-07-10T13:26:20;25.90;99.90
23579;DHT22;11967;50.852;4.400;2022-07-10T13:28:46;26.00;99.90
23579;DHT22;11967;50.852;4.400;2022-07-10T13:31:11;25.90;99.90
23579;DHT22;11967;50.852;4.400;2022-07-10T13:33:37;25.90;99.90
23579;DHT22;11967;50.852;4.400;2022-07-10T13:36:04;25.90;99.90
23579;DHT22;11967;50.852;4.400;2022-07-10T13:38:30;25.80;99.90
23579;DHT22;11967;50.852;4.400;2022-07-10T13:40:57;25.80;99.90
23579;DHT22;11967;50.852;4.400;2022-07-10T13:43:23;25.80;99.90
23579;DHT22;11967;50.852;4.400;2022-07-10T13:45:59;25.90;99.90
23579;DHT22;11967;50.852;4.400;2022-07-10T13:48:25;25.80;99.90
23579;DHT22;11967;50.852;4.400;2022-07-10T13:50:51;25.90;99.90
23579;DHT22;11967;50.852;4.400;2022-07-10T13:53:17;25.90;99.80
23579;DHT22;11967;50.852;4.400;2022-07-10T13:55:43;25.90;99.90
23579;DHT22;11967;50.852;4.400;2022-07-10T13:58:10;25.90;99.70
23579;DHT22;11967;50.852;4.400;2022-07-10T14:00:36;25.90;99.70
23579;DHT22;11967;50.852;4.400;2022-07-10T14:03:02;26.00;99.50
23579;DHT22;11967;50.852;4.400;2022-07-10T14:05:28;26.10;99.20
23579;DHT22;11967;50.852;4.400;2022-07-10T14:07:54;26.00;99.10
23579;DHT22;11967;50.852;4.400;2022-07-10T14:10:19;26.10;99.20
23579;DHT22;11967;50.852;4.400;2022-07-10T14:12:45;25.90;98.90
23579;DHT22;11967;50.852;4.400;2022-07-10T14:15:11;25.90;99.10
23579;DHT22;11967;50.852;4.400;2022-07-10T14:17:37;26.00;99.00
23579;DHT22;11967;50.852;4.400;2022-07-10T14:20:02;25.90;99.20
23579;DHT22;11967;50.852;4.400;2022-07-10T14:22:28;26.00;99.10
23579;DHT22;11967;50.852;4.400;2022-07-10T14:24:56;26.00;99.10
23579;DHT22;11967;50.852;4.400;2022-07-10T14:27:22;26.00;99.00
23579;DHT22;11967;50.852;4.400;2022-07-10T14:29:49;25.90;99.10
23579;DHT22;11967;50.852;4.400;2022-07-10T14:32:15;26.10;99.20
23579;DHT22;11967;50.852;4.400;2022-07-10T14:34:41;26.00;99.00
23579;DHT22;11967;50.852;4.400;2022-07-10T14:37:06;26.00;99.10
23579;DHT22;11967;50.852;4.400;2022-07-10T14:39:32;26.00;98.90
23579;DHT22;11967;50.852;4.400;2022-07-10T14:41:57;26.00;98.90
23579;DHT22;11967;50.852;4.400;2022-07-10T14:44:23;26.10;98.60
23579;DHT22;11967;50.852;4.400;2022-07-10T14:46:48;26.10;97.70
23579;DHT22;11967;50.852;4.400;2022-07-10T14:49:14;26.10;98.20
23579;DHT22;11967;50.852;4.400;2022-07-10T14:51:40;26.20;98.40
23579;DHT22;11967;50.852;4.400;2022-07-10T14:54:06;26.20;98.40
23579;DHT22;11967;50.852;4.400;2022-07-10T14:56:32;26.20;98.40
23579;DHT22;11967;50.852;4.400;2022-07-10T14:58:57;26.20;98.40
23579;DHT22;11967;50.852;4.400;2022-07-10T15:01:23;26.20;98.30
23579;DHT22;11967;50.852;4.400;2022-07-10T15:03:50;26.20;98.20
23579;DHT22;11967;50.852;4.400;2022-07-10T15:06:15;26.20;98.30
23579;DHT22;11967;50.852;4.400;2022-07-10T15:08:41;26.10;97.90
23579;DHT22;11967;50.852;4.400;2022-07-10T15:11:06;26.10;98.10
23579;DHT22;11967;50.852;4.400;2022-07-10T15:13:33;26.00;98.10
23579;DHT22;11967;50.852;4.400;2022-07-10T15:16:00;26.10;98.10
23579;DHT22;11967;50.852;4.400;2022-07-10T15:18:26;26.10;98.20
23579;DHT22;11967;50.852;4.400;2022-07-10T15:20:52;26.00;98.30
23579;DHT22;11967;50.852;4.400;2022-07-10T15:23:17;26.00;98.10
23579;DHT22;11967;50.852;4.400;2022-07-10T15:25:43;25.90;98.10
23579;DHT22;11967;50.852;4.400;2022-07-10T15:28:09;25.90;98.00
23579;DHT22;11967;50.852;4.400;2022-07-10T15:30:37;25.90;97.90
23579;DHT22;11967;50.852;4.400;2022-07-10T15:33:03;25.90;97.90
23579;DHT22;11967;50.852;4.400;2022-07-10T15:35:30;26.00;97.90
23579;DHT22;11967;50.852;4.400;2022-07-10T15:37:56;26.00;98.10
23579;DHT22;11967;50.852;4.400;2022-07-10T15:40:27;26.10;97.80
23579;DHT22;11967;50.852;4.400;2022-07-10T15:42:54;26.10;97.80
23579;DHT22;11967;50.852;4.400;2022-07-10T15:45:25;26.20;97.80
23579;DHT22;11967;50.852;4.400;2022-07-10T15:47:51;26.10;97.70
23579;DHT22;11967;50.852;4.400;2022-07-10T15:50:17;26.10;97.80
23579;DHT22;11967;50.852;4.400;2022-07-10T15:52:42;26.10;97.70
23579;DHT22;11967;50.852;4.400;2022-07-10T15:55:08;26.00;97.90
23579;DHT22;11967;50.852;4.400;2022-07-10T15:57:35;26.10;97.80
23579;DHT22;11967;50.852;4.400;2022-07-10T16:00:01;26.10;97.90